Straumvik — LEYJ — position and weather

sailwx.info

Track history (hours):
 
Tides and Currents Weather Stations Pressure Air Temp Water Temp Dewpoint Dewpoint Depression Visibility Wind Speed Wind Dir Waves Ship Positions

Straumvik

Last reported at 2016-May-03 03:33 UTC. Time now 2016-May-03 12:30 UTC.
Position N 59°53' E 005°32'.

Length 50 m; draft 5 m.

Type: Ship. MMSI: 258260000.

Date/timePositionNaut miles runAvg speedWind from/ knotsBaromVisibWave heightAir tempDewpointWater temp
2016-May-03 03:33N 59°53' E 005°32'7 6.7
2016-May-03 02:33N 59°46' E 005°33'10 9.3
2016-May-03 01:26N 59°38' E 005°19'22 2.5
2016-May-02 16:30N 59°16' E 005°20'6 5.8
2016-May-02 15:33N 59°13' E 005°29'6 6.2
2016-May-02 14:33N 59°09' E 005°39'7 6.9
2016-May-02 13:33N 59°05' E 005°50'7 7.2
2016-May-02 12:34N 58°59' E 005°54'7 7.2
2016-May-02 11:32N 58°54' E 006°05'1 0.3
2016-May-02 08:33N 58°54' E 006°03'7 7.2
2016-May-02 07:34N 58°59' E 005°53'7 7.0
2016-May-02 06:33N 59°06' E 005°49'7 7.1
2016-May-02 05:34N 59°10' E 005°38'7 6.7
2016-May-02 04:33N 59°14' E 005°27'5 5.1
2016-May-02 03:33N 59°17' E 005°20'20 6.2
2016-May-02 00:16N 59°38' E 005°18'4 6.0
2016-May-01 23:32N 59°41' E 005°23'2 1.7
2016-May-01 22:33N 59°43' E 005°23'0 0.0
2016-May-01 21:32N 59°43' E 005°23'0 0.0
2016-May-01 20:29N 59°43' E 005°23'0 0.0
2016-May-01 19:34N 59°43' E 005°23'0 0.0
2016-May-01 18:32N 59°43' E 005°23'6 6.5
2016-May-01 17:33N 59°49' E 005°18'  
2016-Apr-25 00:25N 59°54' E 005°31'6 7.0
2016-Apr-24 23:33N 59°48' E 005°33'7 6.7
2016-Apr-24 22:33N 59°42' E 005°26'27 6.2
2016-Apr-24 18:14N 59°15' E 005°20'4 6.5
2016-Apr-24 17:34N 59°11' E 005°22'5 5.4
2016-Apr-24 16:33N 59°09' E 005°31'7 6.5
2016-Apr-24 15:31N 59°08' E 005°44'6 6.4
2016-Apr-24 14:34N 59°03' E 005°51'7 6.6
2016-Apr-24 13:34N 58°57' E 005°58'8 0.5
2016-Apr-23 21:22N 58°52' E 006°09'3 0.4
2016-Apr-23 14:09N 58°53' E 006°05'5 8.5
2016-Apr-23 13:34N 58°57' E 005°58'8 7.7
2016-Apr-23 12:33N 59°04' E 005°52'9 8.5
2016-Apr-23 11:34N 59°12' E 005°53'3 3.1
2016-Apr-23 10:33N 59°15' E 005°49'0 0.0
2016-Apr-23 09:32N 59°15' E 005°49'0 0.0
2016-Apr-23 08:31N 59°15' E 005°49'0 0.0
2016-Apr-23 07:33N 59°15' E 005°49'0 0.0
2016-Apr-23 06:33N 59°15' E 005°49'0 0.0
2016-Apr-23 05:33N 59°15' E 005°49'0 0.0
2016-Apr-23 04:33N 59°15' E 005°49'3 2.7
2016-Apr-23 03:34N 59°17' E 005°53'  
Track history (hours):
 
Tides and Currents Weather Stations Pressure Air Temp Water Temp Dewpoint Dewpoint Depression Visibility Wind Speed Wind Dir Waves Ship Positions

Straumvik

Last reported at 2016-May-03 03:33 UTC. Time now 2016-May-03 12:30 UTC.
Position N 59°53' E 005°32'.

Length 50 m; draft 5 m.

Type: Ship. MMSI: 258260000.

Date/timePositionNaut miles runAvg speedWind from/ knotsBaromVisibWave heightAir tempDewpointWater temp
2016-May-03 03:33N 59°53' E 005°32'7 6.7
2016-May-03 02:33N 59°46' E 005°33'10 9.3
2016-May-03 01:26N 59°38' E 005°19'22 2.5
2016-May-02 16:30N 59°16' E 005°20'6 5.8
2016-May-02 15:33N 59°13' E 005°29'6 6.2
2016-May-02 14:33N 59°09' E 005°39'7 6.9
2016-May-02 13:33N 59°05' E 005°50'7 7.2
2016-May-02 12:34N 58°59' E 005°54'7 7.2
2016-May-02 11:32N 58°54' E 006°05'1 0.3
2016-May-02 08:33N 58°54' E 006°03'7 7.2
2016-May-02 07:34N 58°59' E 005°53'7 7.0
2016-May-02 06:33N 59°06' E 005°49'7 7.1
2016-May-02 05:34N 59°10' E 005°38'7 6.7
2016-May-02 04:33N 59°14' E 005°27'5 5.1
2016-May-02 03:33N 59°17' E 005°20'20 6.2
2016-May-02 00:16N 59°38' E 005°18'4 6.0
2016-May-01 23:32N 59°41' E 005°23'2 1.7
2016-May-01 22:33N 59°43' E 005°23'0 0.0
2016-May-01 21:32N 59°43' E 005°23'0 0.0
2016-May-01 20:29N 59°43' E 005°23'0 0.0
2016-May-01 19:34N 59°43' E 005°23'0 0.0
2016-May-01 18:32N 59°43' E 005°23'6 6.5
2016-May-01 17:33N 59°49' E 005°18'  
2016-Apr-25 00:25N 59°54' E 005°31'6 7.0
2016-Apr-24 23:33N 59°48' E 005°33'7 6.7
2016-Apr-24 22:33N 59°42' E 005°26'27 6.2
2016-Apr-24 18:14N 59°15' E 005°20'4 6.5
2016-Apr-24 17:34N 59°11' E 005°22'5 5.4
2016-Apr-24 16:33N 59°09' E 005°31'7 6.5
2016-Apr-24 15:31N 59°08' E 005°44'6 6.4
2016-Apr-24 14:34N 59°03' E 005°51'7 6.6
2016-Apr-24 13:34N 58°57' E 005°58'8 0.5
2016-Apr-23 21:22N 58°52' E 006°09'3 0.4
2016-Apr-23 14:09N 58°53' E 006°05'5 8.5
2016-Apr-23 13:34N 58°57' E 005°58'8 7.7
2016-Apr-23 12:33N 59°04' E 005°52'9 8.5
2016-Apr-23 11:34N 59°12' E 005°53'3 3.1
2016-Apr-23 10:33N 59°15' E 005°49'0 0.0
2016-Apr-23 09:32N 59°15' E 005°49'0 0.0
2016-Apr-23 08:31N 59°15' E 005°49'0 0.0
2016-Apr-23 07:33N 59°15' E 005°49'0 0.0
2016-Apr-23 06:33N 59°15' E 005°49'0 0.0
2016-Apr-23 05:33N 59°15' E 005°49'0 0.0
2016-Apr-23 04:33N 59°15' E 005°49'3 2.7
2016-Apr-23 03:34N 59°17' E 005°53'  

Dump ship's entire track history